sensor_id;sensor_type;location;lat;lon;timestamp;temperature;humidity
65291;SHT30;51893;59.754;10.110;2024-01-30T00:00:00;1.01;80.08
65291;SHT30;51893;59.754;10.110;2024-01-30T00:02:29;0.95;80.03
65291;SHT30;51893;59.754;10.110;2024-01-30T00:04:57;0.93;80.09
65291;SHT30;51893;59.754;10.110;2024-01-30T00:07:28;0.94;80.12
65291;SHT30;51893;59.754;10.110;2024-01-30T00:09:56;0.92;80.11
65291;SHT30;51893;59.754;10.110;2024-01-30T00:12:28;0.88;80.25
65291;SHT30;51893;59.754;10.110;2024-01-30T00:14:56;0.88;80.36
65291;SHT30;51893;59.754;10.110;2024-01-30T00:17:26;0.87;80.54
65291;SHT30;51893;59.754;10.110;2024-01-30T00:19:54;0.94;80.48
65291;SHT30;51893;59.754;10.110;2024-01-30T00:22:23;1.01;80.47
65291;SHT30;51893;59.754;10.110;2024-01-30T00:24:52;1.04;80.21
65291;SHT30;51893;59.754;10.110;2024-01-30T00:27:20;1.05;80.15
65291;SHT30;51893;59.754;10.110;2024-01-30T00:29:48;0.97;80.06
65291;SHT30;51893;59.754;10.110;2024-01-30T00:32:16;0.89;79.91
65291;SHT30;51893;59.754;10.110;2024-01-30T00:34:46;0.87;79.91
65291;SHT30;51893;59.754;10.110;2024-01-30T00:37:15;0.90;80.08
65291;SHT30;51893;59.754;10.110;2024-01-30T00:39:44;0.98;80.04
65291;SHT30;51893;59.754;10.110;2024-01-30T00:42:11;1.08;80.00
65291;SHT30;51893;59.754;10.110;2024-01-30T00:44:39;1.05;79.93
65291;SHT30;51893;59.754;10.110;2024-01-30T00:47:07;1.00;80.23
65291;SHT30;51893;59.754;10.110;2024-01-30T00:49:37;0.94;80.31
65291;SHT30;51893;59.754;10.110;2024-01-30T00:52:05;0.85;80.43
65291;SHT30;51893;59.754;10.110;2024-01-30T00:54:34;0.78;80.58
65291;SHT30;51893;59.754;10.110;2024-01-30T00:57:02;0.71;80.72
65291;SHT30;51893;59.754;10.110;2024-01-30T00:59:30;0.66;80.92
65291;SHT30;51893;59.754;10.110;2024-01-30T01:01:59;0.63;81.01
65291;SHT30;51893;59.754;10.110;2024-01-30T01:04:27;0.61;81.00
65291;SHT30;51893;59.754;10.110;2024-01-30T01:06:55;0.61;80.95
65291;SHT30;51893;59.754;10.110;2024-01-30T01:09:23;0.65;80.84
65291;SHT30;51893;59.754;10.110;2024-01-30T01:11:51;0.69;80.70
65291;SHT30;51893;59.754;10.110;2024-01-30T01:14:19;0.77;80.59
65291;SHT30;51893;59.754;10.110;2024-01-30T01:16:48;0.94;80.39
65291;SHT30;51893;59.754;10.110;2024-01-30T01:19:19;0.94;80.07
65291;SHT30;51893;59.754;10.110;2024-01-30T01:21:48;0.87;80.02
65291;SHT30;51893;59.754;10.110;2024-01-30T01:24:19;0.86;80.03
65291;SHT30;51893;59.754;10.110;2024-01-30T01:26:47;0.89;79.93
65291;SHT30;51893;59.754;10.110;2024-01-30T01:29:15;0.85;79.92
65291;SHT30;51893;59.754;10.110;2024-01-30T01:31:45;0.86;79.95
65291;SHT30;51893;59.754;10.110;2024-01-30T01:34:14;0.84;80.04
65291;SHT30;51893;59.754;10.110;2024-01-30T01:36:42;0.84;80.01
65291;SHT30;51893;59.754;10.110;2024-01-30T01:39:10;0.82;80.10
65291;SHT30;51893;59.754;10.110;2024-01-30T01:41:38;0.84;80.06
65291;SHT30;51893;59.754;10.110;2024-01-30T01:44:08;0.79;79.92
65291;SHT30;51893;59.754;10.110;2024-01-30T01:46:37;0.85;79.94
65291;SHT30;51893;59.754;10.110;2024-01-30T01:49:05;0.87;79.63
65291;SHT30;51893;59.754;10.110;2024-01-30T01:51:35;0.90;79.69
65291;SHT30;51893;59.754;10.110;2024-01-30T01:54:05;0.96;79.54
65291;SHT30;51893;59.754;10.110;2024-01-30T01:56:37;0.91;79.42
65291;SHT30;51893;59.754;10.110;2024-01-30T01:59:07;0.86;79.45
65291;SHT30;51893;59.754;10.110;2024-01-30T02:01:36;0.89;79.45
65291;SHT30;51893;59.754;10.110;2024-01-30T02:04:06;0.85;79.32
65291;SHT30;51893;59.754;10.110;2024-01-30T02:06:36;0.76;79.49
65291;SHT30;51893;59.754;10.110;2024-01-30T02:09:07;0.75;79.61
65291;SHT30;51893;59.754;10.110;2024-01-30T02:11:38;0.70;79.62
65291;SHT30;51893;59.754;10.110;2024-01-30T02:14:05;0.65;79.75
65291;SHT30;51893;59.754;10.110;2024-01-30T02:16:34;0.60;79.80
65291;SHT30;51893;59.754;10.110;2024-01-30T02:19:02;0.58;79.91
65291;SHT30;51893;59.754;10.110;2024-01-30T02:21:30;0.55;79.85
65291;SHT30;51893;59.754;10.110;2024-01-30T02:23:58;0.56;79.80
65291;SHT30;51893;59.754;10.110;2024-01-30T02:26:28;0.61;79.83
65291;SHT30;51893;59.754;10.110;2024-01-30T02:28:56;0.61;79.70
65291;SHT30;51893;59.754;10.110;2024-01-30T02:31:25;0.62;79.60
65291;SHT30;51893;59.754;10.110;2024-01-30T02:33:54;0.61;79.54
65291;SHT30;51893;59.754;10.110;2024-01-30T02:36:22;0.59;79.60
65291;SHT30;51893;59.754;10.110;2024-01-30T02:38:50;0.60;79.59
65291;SHT30;51893;59.754;10.110;2024-01-30T02:41:18;0.58;79.53
65291;SHT30;51893;59.754;10.110;2024-01-30T02:43:47;0.52;79.50
65291;SHT30;51893;59.754;10.110;2024-01-30T02:46:17;0.47;79.54
65291;SHT30;51893;59.754;10.110;2024-01-30T02:48:45;0.42;79.67
65291;SHT30;51893;59.754;10.110;2024-01-30T02:51:13;0.39;79.71
65291;SHT30;51893;59.754;10.110;2024-01-30T02:53:41;0.38;79.80
65291;SHT30;51893;59.754;10.110;2024-01-30T02:56:08;0.34;79.84
65291;SHT30;51893;59.754;10.110;2024-01-30T02:58:38;0.37;79.89
65291;SHT30;51893;59.754;10.110;2024-01-30T03:01:07;0.39;79.91
65291;SHT30;51893;59.754;10.110;2024-01-30T03:03:37;0.42;79.98
65291;SHT30;51893;59.754;10.110;2024-01-30T03:06:05;0.39;79.83
65291;SHT30;51893;59.754;10.110;2024-01-30T03:08:33;0.27;79.80
65291;SHT30;51893;59.754;10.110;2024-01-30T03:11:02;0.21;79.99
65291;SHT30;51893;59.754;10.110;2024-01-30T03:13:30;0.17;80.11
65291;SHT30;51893;59.754;10.110;2024-01-30T03:16:01;0.07;80.24
65291;SHT30;51893;59.754;10.110;2024-01-30T03:18:29;0.03;80.44
65291;SHT30;51893;59.754;10.110;2024-01-30T03:20:57;0.04;80.57
65291;SHT30;51893;59.754;10.110;2024-01-30T03:23:25;0.08;80.62
65291;SHT30;51893;59.754;10.110;2024-01-30T03:25:53;0.09;80.61
65291;SHT30;51893;59.754;10.110;2024-01-30T03:28:21;0.11;80.63
65291;SHT30;51893;59.754;10.110;2024-01-30T03:30:49;0.12;80.57
65291;SHT30;51893;59.754;10.110;2024-01-30T03:33:19;0.08;80.49
65291;SHT30;51893;59.754;10.110;2024-01-30T03:35:50;0.00;80.57
65291;SHT30;51893;59.754;10.110;2024-01-30T03:38:18;-0.02;80.60
65291;SHT30;51893;59.754;10.110;2024-01-30T03:40:46;-0.06;80.62
65291;SHT30;51893;59.754;10.110;2024-01-30T03:43:14;-0.00;80.70
65291;SHT30;51893;59.754;10.110;2024-01-30T03:45:43;0.03;80.69
65291;SHT30;51893;59.754;10.110;2024-01-30T03:48:11;0.06;80.68
65291;SHT30;51893;59.754;10.110;2024-01-30T03:50:39;0.05;80.70
65291;SHT30;51893;59.754;10.110;2024-01-30T03:53:09;0.07;80.63
65291;SHT30;51893;59.754;10.110;2024-01-30T03:55:37;0.12;80.62
65291;SHT30;51893;59.754;10.110;2024-01-30T03:58:05;0.12;80.43
65291;SHT30;51893;59.754;10.110;2024-01-30T04:00:34;0.12;80.49
65291;SHT30;51893;59.754;10.110;2024-01-30T04:03:04;0.08;80.42
65291;SHT30;51893;59.754;10.110;2024-01-30T04:05:33;0.04;80.49
65291;SHT30;51893;59.754;10.110;2024-01-30T04:08:02;0.07;80.60
65291;SHT30;51893;59.754;10.110;2024-01-30T04:10:30;0.12;80.60
65291;SHT30;51893;59.754;10.110;2024-01-30T04:12:59;0.13;80.56
65291;SHT30;51893;59.754;10.110;2024-01-30T04:15:30;0.15;80.56
65291;SHT30;51893;59.754;10.110;2024-01-30T04:17:58;0.19;80.52
65291;SHT30;51893;59.754;10.110;2024-01-30T04:20:27;0.22;80.48
65291;SHT30;51893;59.754;10.110;2024-01-30T04:22:55;0.22;80.33
65291;SHT30;51893;59.754;10.110;2024-01-30T04:25:23;0.20;80.41
65291;SHT30;51893;59.754;10.110;2024-01-30T04:27:52;0.25;80.43
65291;SHT30;51893;59.754;10.110;2024-01-30T04:30:23;0.27;80.27
65291;SHT30;51893;59.754;10.110;2024-01-30T04:32:51;0.30;80.21
65291;SHT30;51893;59.754;10.110;2024-01-30T04:35:26;0.30;80.08
65291;SHT30;51893;59.754;10.110;2024-01-30T04:37:55;0.31;80.02
65291;SHT30;51893;59.754;10.110;2024-01-30T04:40:22;0.29;79.94
65291;SHT30;51893;59.754;10.110;2024-01-30T04:42:51;0.27;79.94
65291;SHT30;51893;59.754;10.110;2024-01-30T04:45:19;0.27;79.84
65291;SHT30;51893;59.754;10.110;2024-01-30T04:47:48;0.25;79.91
65291;SHT30;51893;59.754;10.110;2024-01-30T04:50:16;0.29;80.05
65291;SHT30;51893;59.754;10.110;2024-01-30T04:52:44;0.31;80.02
65291;SHT30;51893;59.754;10.110;2024-01-30T04:55:13;0.26;79.96
65291;SHT30;51893;59.754;10.110;2024-01-30T04:57:47;0.28;80.03
65291;SHT30;51893;59.754;10.110;2024-01-30T05:00:17;0.34;80.08
65291;SHT30;51893;59.754;10.110;2024-01-30T05:02:47;0.40;79.92
65291;SHT30;51893;59.754;10.110;2024-01-30T05:05:15;0.33;79.66
65291;SHT30;51893;59.754;10.110;2024-01-30T05:07:44;0.25;79.61
65291;SHT30;51893;59.754;10.110;2024-01-30T05:10:15;0.20;79.63
65291;SHT30;51893;59.754;10.110;2024-01-30T05:12:43;0.19;79.75
65291;SHT30;51893;59.754;10.110;2024-01-30T05:15:13;0.22;79.87
65291;SHT30;51893;59.754;10.110;2024-01-30T05:17:44;0.20;79.80
65291;SHT30;51893;59.754;10.110;2024-01-30T05:20:13;0.18;79.89
65291;SHT30;51893;59.754;10.110;2024-01-30T05:22:41;0.22;79.91
65291;SHT30;51893;59.754;10.110;2024-01-30T05:25:16;0.25;79.80
65291;SHT30;51893;59.754;10.110;2024-01-30T05:27:44;0.25;79.75
65291;SHT30;51893;59.754;10.110;2024-01-30T05:30:14;0.28;79.86
65291;SHT30;51893;59.754;10.110;2024-01-30T05:32:43;0.30;79.79
65291;SHT30;51893;59.754;10.110;2024-01-30T05:35:11;0.31;79.78
65291;SHT30;51893;59.754;10.110;2024-01-30T05:37:39;0.31;79.84
65291;SHT30;51893;59.754;10.110;2024-01-30T05:40:07;0.30;79.76
65291;SHT30;51893;59.754;10.110;2024-01-30T05:42:36;0.26;79.65
65291;SHT30;51893;59.754;10.110;2024-01-30T05:45:04;0.23;79.78
65291;SHT30;51893;59.754;10.110;2024-01-30T05:47:33;0.26;79.84
65291;SHT30;51893;59.754;10.110;2024-01-30T05:50:03;0.29;79.89
65291;SHT30;51893;59.754;10.110;2024-01-30T05:52:32;0.31;79.85
65291;SHT30;51893;59.754;10.110;2024-01-30T05:55:00;0.42;79.80
65291;SHT30;51893;59.754;10.110;2024-01-30T05:57:30;0.46;79.86
65291;SHT30;51893;59.754;10.110;2024-01-30T05:59:58;0.51;79.91
65291;SHT30;51893;59.754;10.110;2024-01-30T06:02:27;0.53;79.73
65291;SHT30;51893;59.754;10.110;2024-01-30T06:04:55;0.47;79.57
65291;SHT30;51893;59.754;10.110;2024-01-30T06:07:23;0.48;79.71
65291;SHT30;51893;59.754;10.110;2024-01-30T06:09:51;0.48;79.66
65291;SHT30;51893;59.754;10.110;2024-01-30T06:12:19;0.44;79.62
65291;SHT30;51893;59.754;10.110;2024-01-30T06:14:47;0.44;79.72
65291;SHT30;51893;59.754;10.110;2024-01-30T06:17:15;0.41;79.51
65291;SHT30;51893;59.754;10.110;2024-01-30T06:19:43;0.38;79.51
65291;SHT30;51893;59.754;10.110;2024-01-30T06:22:11;0.39;79.58
65291;SHT30;51893;59.754;10.110;2024-01-30T06:24:40;0.37;79.60
65291;SHT30;51893;59.754;10.110;2024-01-30T06:27:08;0.34;79.51
65291;SHT30;51893;59.754;10.110;2024-01-30T06:29:36;0.37;79.54
65291;SHT30;51893;59.754;10.110;2024-01-30T06:32:04;0.39;79.60
65291;SHT30;51893;59.754;10.110;2024-01-30T06:34:33;0.42;79.54
65291;SHT30;51893;59.754;10.110;2024-01-30T06:37:01;0.47;79.44
65291;SHT30;51893;59.754;10.110;2024-01-30T06:39:30;0.46;79.36
65291;SHT30;51893;59.754;10.110;2024-01-30T06:41:57;0.43;79.38
65291;SHT30;51893;59.754;10.110;2024-01-30T06:44:26;0.38;79.41
65291;SHT30;51893;59.754;10.110;2024-01-30T06:46:56;0.36;79.47
65291;SHT30;51893;59.754;10.110;2024-01-30T06:49:24;0.36;79.55
65291;SHT30;51893;59.754;10.110;2024-01-30T06:51:52;0.38;79.71
65291;SHT30;51893;59.754;10.110;2024-01-30T06:54:20;0.43;79.80
65291;SHT30;51893;59.754;10.110;2024-01-30T06:56:48;0.49;79.62
65291;SHT30;51893;59.754;10.110;2024-01-30T06:59:17;0.50;79.60
65291;SHT30;51893;59.754;10.110;2024-01-30T07:01:45;0.51;79.61
65291;SHT30;51893;59.754;10.110;2024-01-30T07:04:13;0.52;79.66
65291;SHT30;51893;59.754;10.110;2024-01-30T07:06:41;0.55;79.64
65291;SHT30;51893;59.754;10.110;2024-01-30T07:09:10;0.57;79.70
65291;SHT30;51893;59.754;10.110;2024-01-30T07:11:38;0.58;79.69
65291;SHT30;51893;59.754;10.110;2024-01-30T07:14:06;0.54;79.28
65291;SHT30;51893;59.754;10.110;2024-01-30T07:16:35;0.48;79.08
65291;SHT30;51893;59.754;10.110;2024-01-30T07:19:03;0.44;79.10
65291;SHT30;51893;59.754;10.110;2024-01-30T07:21:32;0.39;79.20
65291;SHT30;51893;59.754;10.110;2024-01-30T07:24:00;0.34;79.13
65291;SHT30;51893;59.754;10.110;2024-01-30T07:26:28;0.30;79.21
65291;SHT30;51893;59.754;10.110;2024-01-30T07:28:56;0.26;79.20
65291;SHT30;51893;59.754;10.110;2024-01-30T07:31:26;0.19;79.36
65291;SHT30;51893;59.754;10.110;2024-01-30T07:33:58;0.15;79.49
65291;SHT30;51893;59.754;10.110;2024-01-30T07:36:27;0.16;79.56
65291;SHT30;51893;59.754;10.110;2024-01-30T07:38:55;0.18;79.55
65291;SHT30;51893;59.754;10.110;2024-01-30T07:41:23;0.16;79.56
65291;SHT30;51893;59.754;10.110;2024-01-30T07:43:52;0.17;79.57
65291;SHT30;51893;59.754;10.110;2024-01-30T07:46:22;0.17;79.53
65291;SHT30;51893;59.754;10.110;2024-01-30T07:48:50;0.19;79.55
65291;SHT30;51893;59.754;10.110;2024-01-30T07:51:22;0.25;79.58
65291;SHT30;51893;59.754;10.110;2024-01-30T07:53:50;0.28;79.43
65291;SHT30;51893;59.754;10.110;2024-01-30T07:56:18;0.31;79.39
65291;SHT30;51893;59.754;10.110;2024-01-30T07:58:46;0.34;79.28
65291;SHT30;51893;59.754;10.110;2024-01-30T08:01:14;0.34;79.23
65291;SHT30;51893;59.754;10.110;2024-01-30T08:03:43;0.31;79.11
65291;SHT30;51893;59.754;10.110;2024-01-30T08:06:12;0.30;79.13
65291;SHT30;51893;59.754;10.110;2024-01-30T08:08:40;0.26;79.09
65291;SHT30;51893;59.754;10.110;2024-01-30T08:11:10;0.23;79.08
65291;SHT30;51893;59.754;10.110;2024-01-30T08:13:37;0.22;79.17
65291;SHT30;51893;59.754;10.110;2024-01-30T08:16:06;0.29;79.29
65291;SHT30;51893;59.754;10.110;2024-01-30T08:18:36;0.33;79.20
65291;SHT30;51893;59.754;10.110;2024-01-30T08:21:06;0.34;79.34
65291;SHT30;51893;59.754;10.110;2024-01-30T08:23:34;0.37;79.31
65291;SHT30;51893;59.754;10.110;2024-01-30T08:26:03;0.38;79.16
65291;SHT30;51893;59.754;10.110;2024-01-30T08:28:33;0.37;79.22
65291;SHT30;51893;59.754;10.110;2024-01-30T08:31:04;0.34;79.19
65291;SHT30;51893;59.754;10.110;2024-01-30T08:33:32;0.32;79.20
65291;SHT30;51893;59.754;10.110;2024-01-30T08:36:00;0.35;79.21
65291;SHT30;51893;59.754;10.110;2024-01-30T08:38:29;0.38;79.15
65291;SHT30;51893;59.754;10.110;2024-01-30T08:40:57;0.39;79.21
65291;SHT30;51893;59.754;10.110;2024-01-30T08:43:25;0.38;79.23
65291;SHT30;51893;59.754;10.110;2024-01-30T08:45:54;0.33;79.29
65291;SHT30;51893;59.754;10.110;2024-01-30T08:48:21;0.32;79.26
65291;SHT30;51893;59.754;10.110;2024-01-30T08:50:50;0.28;79.26
65291;SHT30;51893;59.754;10.110;2024-01-30T08:53:19;0.28;79.33
65291;SHT30;51893;59.754;10.110;2024-01-30T08:55:49;0.34;79.41
65291;SHT30;51893;59.754;10.110;2024-01-30T08:58:17;0.39;79.23
65291;SHT30;51893;59.754;10.110;2024-01-30T09:00:47;0.41;79.15
65291;SHT30;51893;59.754;10.110;2024-01-30T09:03:15;0.40;79.06
65291;SHT30;51893;59.754;10.110;2024-01-30T09:05:44;0.38;79.04
65291;SHT30;51893;59.754;10.110;2024-01-30T09:08:14;0.36;79.13
65291;SHT30;51893;59.754;10.110;2024-01-30T09:10:43;0.38;79.22
65291;SHT30;51893;59.754;10.110;2024-01-30T09:13:13;0.37;79.25
65291;SHT30;51893;59.754;10.110;2024-01-30T09:15:44;0.32;79.30
65291;SHT30;51893;59.754;10.110;2024-01-30T09:18:12;0.27;79.45
65291;SHT30;51893;59.754;10.110;2024-01-30T09:20:40;0.23;79.71
65291;SHT30;51893;59.754;10.110;2024-01-30T09:23:08;0.20;79.91
65291;SHT30;51893;59.754;10.110;2024-01-30T09:25:37;0.24;80.07
65291;SHT30;51893;59.754;10.110;2024-01-30T09:28:05;0.20;80.30
65291;SHT30;51893;59.754;10.110;2024-01-30T09:30:36;0.20;80.67
65291;SHT30;51893;59.754;10.110;2024-01-30T09:33:04;0.20;80.89
65291;SHT30;51893;59.754;10.110;2024-01-30T09:35:34;0.18;81.07
65291;SHT30;51893;59.754;10.110;2024-01-30T09:38:04;0.19;81.35
65291;SHT30;51893;59.754;10.110;2024-01-30T09:40:32;0.18;81.52
65291;SHT30;51893;59.754;10.110;2024-01-30T09:43:01;0.22;81.67
65291;SHT30;51893;59.754;10.110;2024-01-30T09:45:30;0.22;81.82
65291;SHT30;51893;59.754;10.110;2024-01-30T09:48:02;0.27;81.92
65291;SHT30;51893;59.754;10.110;2024-01-30T09:50:31;0.32;82.00
65291;SHT30;51893;59.754;10.110;2024-01-30T09:53:03;0.33;81.92
65291;SHT30;51893;59.754;10.110;2024-01-30T09:55:32;0.37;82.01
65291;SHT30;51893;59.754;10.110;2024-01-30T09:58:00;0.42;82.06
65291;SHT30;51893;59.754;10.110;2024-01-30T10:00:31;0.43;82.08
65291;SHT30;51893;59.754;10.110;2024-01-30T10:02:59;0.37;82.17
65291;SHT30;51893;59.754;10.110;2024-01-30T10:05:28;0.40;82.35
65291;SHT30;51893;59.754;10.110;2024-01-30T10:08:01;0.42;82.47
65291;SHT30;51893;59.754;10.110;2024-01-30T10:10:38;0.49;82.57
65291;SHT30;51893;59.754;10.110;2024-01-30T10:13:06;0.58;82.56
65291;SHT30;51893;59.754;10.110;2024-01-30T10:15:34;0.69;82.48
65291;SHT30;51893;59.754;10.110;2024-01-30T10:18:06;0.72;82.24
65291;SHT30;51893;59.754;10.110;2024-01-30T10:20:37;0.58;82.30
65291;SHT30;51893;59.754;10.110;2024-01-30T10:23:06;0.49;82.50
65291;SHT30;51893;59.754;10.110;2024-01-30T10:25:35;0.51;82.68
65291;SHT30;51893;59.754;10.110;2024-01-30T10:28:05;0.56;82.70
65291;SHT30;51893;59.754;10.110;2024-01-30T10:30:34;0.56;82.78
65291;SHT30;51893;59.754;10.110;2024-01-30T10:33:03;0.55;82.96
65291;SHT30;51893;59.754;10.110;2024-01-30T10:35:32;0.60;83.01
65291;SHT30;51893;59.754;10.110;2024-01-30T10:38:01;0.60;83.04
65291;SHT30;51893;59.754;10.110;2024-01-30T10:40:30;0.60;83.16
65291;SHT30;51893;59.754;10.110;2024-01-30T10:43:05;0.63;83.16
65291;SHT30;51893;59.754;10.110;2024-01-30T10:45:41;0.60;83.17
65291;SHT30;51893;59.754;10.110;2024-01-30T10:48:16;0.61;83.25
65291;SHT30;51893;59.754;10.110;2024-01-30T10:50:53;0.60;83.32
65291;SHT30;51893;59.754;10.110;2024-01-30T10:53:28;0.60;83.41
65291;SHT30;51893;59.754;10.110;2024-01-30T10:56:01;0.58;83.46
65291;SHT30;51893;59.754;10.110;2024-01-30T10:58:33;0.56;83.51
65291;SHT30;51893;59.754;10.110;2024-01-30T11:01:03;0.55;83.57
65291;SHT30;51893;59.754;10.110;2024-01-30T11:03:33;0.57;83.60
65291;SHT30;51893;59.754;10.110;2024-01-30T11:06:04;0.60;83.57
65291;SHT30;51893;59.754;10.110;2024-01-30T11:08:33;0.60;83.51
65291;SHT30;51893;59.754;10.110;2024-01-30T11:11:01;0.61;83.51
65291;SHT30;51893;59.754;10.110;2024-01-30T11:13:30;0.66;83.54
65291;SHT30;51893;59.754;10.110;2024-01-30T11:16:03;0.68;83.59
65291;SHT30;51893;59.754;10.110;2024-01-30T11:18:35;0.67;83.60
65291;SHT30;51893;59.754;10.110;2024-01-30T11:21:06;0.67;83.68
65291;SHT30;51893;59.754;10.110;2024-01-30T11:23:34;0.69;83.70
65291;SHT30;51893;59.754;10.110;2024-01-30T11:26:04;0.74;83.66
65291;SHT30;51893;59.754;10.110;2024-01-30T11:28:34;0.74;83.56
65291;SHT30;51893;59.754;10.110;2024-01-30T11:31:06;0.72;83.50
65291;SHT30;51893;59.754;10.110;2024-01-30T11:33:36;0.74;83.52
65291;SHT30;51893;59.754;10.110;2024-01-30T11:36:04;0.76;83.50
65291;SHT30;51893;59.754;10.110;2024-01-30T11:38:35;0.80;83.51
65291;SHT30;51893;59.754;10.110;2024-01-30T11:41:03;0.83;83.42
65291;SHT30;51893;59.754;10.110;2024-01-30T11:43:35;0.85;83.45
65291;SHT30;51893;59.754;10.110;2024-01-30T11:46:05;0.81;83.42
65291;SHT30;51893;59.754;10.110;2024-01-30T11:48:35;0.78;83.57
65291;SHT30;51893;59.754;10.110;2024-01-30T11:51:03;0.77;83.61
65291;SHT30;51893;59.754;10.110;2024-01-30T11:53:33;0.72;83.66
65291;SHT30;51893;59.754;10.110;2024-01-30T11:56:09;0.73;83.76
65291;SHT30;51893;59.754;10.110;2024-01-30T11:58:42;0.70;83.70
65291;SHT30;51893;59.754;10.110;2024-01-30T12:01:13;0.65;83.66
65291;SHT30;51893;59.754;10.110;2024-01-30T12:03:41;0.64;83.79
65291;SHT30;51893;59.754;10.110;2024-01-30T12:06:12;0.60;83.77
65291;SHT30;51893;59.754;10.110;2024-01-30T12:08:55;0.60;83.82
65291;SHT30;51893;59.754;10.110;2024-01-30T12:11:28;0.61;83.86
65291;SHT30;51893;59.754;10.110;2024-01-30T12:13:57;0.65;83.87
65291;SHT30;51893;59.754;10.110;2024-01-30T12:16:26;0.68;83.89
65291;SHT30;51893;59.754;10.110;2024-01-30T12:19:00;0.71;83.81
65291;SHT30;51893;59.754;10.110;2024-01-30T12:21:29;0.74;83.82
65291;SHT30;51893;59.754;10.110;2024-01-30T12:23:59;0.78;83.85
65291;SHT30;51893;59.754;10.110;2024-01-30T12:26:27;0.81;83.81
65291;SHT30;51893;59.754;10.110;2024-01-30T12:28:56;0.77;83.85
65291;SHT30;51893;59.754;10.110;2024-01-30T12:31:32;0.73;83.99
65291;SHT30;51893;59.754;10.110;2024-01-30T12:34:01;0.74;84.08
65291;SHT30;51893;59.754;10.110;2024-01-30T12:36:29;0.76;84.03
65291;SHT30;51893;59.754;10.110;2024-01-30T12:38:58;0.75;84.03
65291;SHT30;51893;59.754;10.110;2024-01-30T12:41:27;0.76;84.07
65291;SHT30;51893;59.754;10.110;2024-01-30T12:43:57;0.81;84.08
65291;SHT30;51893;59.754;10.110;2024-01-30T12:46:30;0.81;83.98
65291;SHT30;51893;59.754;10.110;2024-01-30T12:48:58;0.85;84.01
65291;SHT30;51893;59.754;10.110;2024-01-30T12:51:27;0.86;83.93
65291;SHT30;51893;59.754;10.110;2024-01-30T12:53:55;0.84;83.91
65291;SHT30;51893;59.754;10.110;2024-01-30T12:56:23;0.79;83.96
65291;SHT30;51893;59.754;10.110;2024-01-30T12:58:51;0.82;83.99
65291;SHT30;51893;59.754;10.110;2024-01-30T13:01:22;0.83;83.94
65291;SHT30;51893;59.754;10.110;2024-01-30T13:03:50;0.81;83.93
65291;SHT30;51893;59.754;10.110;2024-01-30T13:06:20;0.82;84.01
65291;SHT30;51893;59.754;10.110;2024-01-30T13:08:48;0.83;84.07
65291;SHT30;51893;59.754;10.110;2024-01-30T13:11:18;0.84;84.10
65291;SHT30;51893;59.754;10.110;2024-01-30T13:13:50;0.82;84.12
65291;SHT30;51893;59.754;10.110;2024-01-30T13:16:19;0.83;84.10
65291;SHT30;51893;59.754;10.110;2024-01-30T13:18:50;0.84;84.16
65291;SHT30;51893;59.754;10.110;2024-01-30T13:21:19;0.87;84.15
65291;SHT30;51893;59.754;10.110;2024-01-30T13:23:47;0.91;84.20
65291;SHT30;51893;59.754;10.110;2024-01-30T13:26:15;0.93;84.15
65291;SHT30;51893;59.754;10.110;2024-01-30T13:28:43;0.91;84.14
65291;SHT30;51893;59.754;10.110;2024-01-30T13:31:13;0.90;84.20
65291;SHT30;51893;59.754;10.110;2024-01-30T13:33:42;0.89;84.22
65291;SHT30;51893;59.754;10.110;2024-01-30T13:36:11;0.96;84.27
65291;SHT30;51893;59.754;10.110;2024-01-30T13:38:39;0.95;84.20
65291;SHT30;51893;59.754;10.110;2024-01-30T13:41:07;0.94;84.29
65291;SHT30;51893;59.754;10.110;2024-01-30T13:43:36;0.91;84.35
65291;SHT30;51893;59.754;10.110;2024-01-30T13:46:04;0.92;84.44
65291;SHT30;51893;59.754;10.110;2024-01-30T13:48:32;0.87;84.50
65291;SHT30;51893;59.754;10.110;2024-01-30T13:51:00;0.87;84.59
65291;SHT30;51893;59.754;10.110;2024-01-30T13:53:29;0.88;84.66
65291;SHT30;51893;59.754;10.110;2024-01-30T13:55:56;0.93;84.70
65291;SHT30;51893;59.754;10.110;2024-01-30T13:58:25;0.95;84.70
65291;SHT30;51893;59.754;10.110;2024-01-30T14:00:53;0.93;84.72
65291;SHT30;51893;59.754;10.110;2024-01-30T14:03:21;0.92;84.80
65291;SHT30;51893;59.754;10.110;2024-01-30T14:05:49;0.92;84.80
65291;SHT30;51893;59.754;10.110;2024-01-30T14:08:18;0.90;84.77
65291;SHT30;51893;59.754;10.110;2024-01-30T14:10:48;0.88;84.80
65291;SHT30;51893;59.754;10.110;2024-01-30T14:13:17;0.89;84.81
65291;SHT30;51893;59.754;10.110;2024-01-30T14:15:45;0.93;84.84
65291;SHT30;51893;59.754;10.110;2024-01-30T14:18:13;0.90;84.77
65291;SHT30;51893;59.754;10.110;2024-01-30T14:20:41;0.92;84.80
65291;SHT30;51893;59.754;10.110;2024-01-30T14:23:10;0.95;84.80
65291;SHT30;51893;59.754;10.110;2024-01-30T14:25:38;0.99;84.72
65291;SHT30;51893;59.754;10.110;2024-01-30T14:28:08;1.04;84.75
65291;SHT30;51893;59.754;10.110;2024-01-30T14:30:36;1.08;84.62
65291;SHT30;51893;59.754;10.110;2024-01-30T14:33:05;1.14;84.58
65291;SHT30;51893;59.754;10.110;2024-01-30T14:35:34;1.18;84.45
65291;SHT30;51893;59.754;10.110;2024-01-30T14:38:03;1.17;84.31
65291;SHT30;51893;59.754;10.110;2024-01-30T14:40:32;1.10;84.14
65291;SHT30;51893;59.754;10.110;2024-01-30T14:43:01;1.02;84.16
65291;SHT30;51893;59.754;10.110;2024-01-30T14:45:28;0.99;84.27
65291;SHT30;51893;59.754;10.110;2024-01-30T14:47:57;0.97;84.36
65291;SHT30;51893;59.754;10.110;2024-01-30T14:50:27;0.94;84.34
65291;SHT30;51893;59.754;10.110;2024-01-30T14:52:58;0.88;84.43
65291;SHT30;51893;59.754;10.110;2024-01-30T14:55:27;0.87;84.59
65291;SHT30;51893;59.754;10.110;2024-01-30T14:57:55;0.94;84.57
65291;SHT30;51893;59.754;10.110;2024-01-30T15:00:27;1.04;84.51
65291;SHT30;51893;59.754;10.110;2024-01-30T15:02:55;1.09;84.35
65291;SHT30;51893;59.754;10.110;2024-01-30T15:05:25;1.12;84.30
65291;SHT30;51893;59.754;10.110;2024-01-30T15:07:53;1.20;84.18
65291;SHT30;51893;59.754;10.110;2024-01-30T15:10:21;1.22;83.93
65291;SHT30;51893;59.754;10.110;2024-01-30T15:12:50;1.09;83.83
65291;SHT30;51893;59.754;10.110;2024-01-30T15:15:18;1.01;84.06
65291;SHT30;51893;59.754;10.110;2024-01-30T15:17:46;1.04;84.24
65291;SHT30;51893;59.754;10.110;2024-01-30T15:20:14;0.98;84.20
65291;SHT30;51893;59.754;10.110;2024-01-30T15:22:44;0.89;84.29
65291;SHT30;51893;59.754;10.110;2024-01-30T15:25:18;0.81;84.38
65291;SHT30;51893;59.754;10.110;2024-01-30T15:27:50;0.77;84.61
65291;SHT30;51893;59.754;10.110;2024-01-30T15:30:19;0.83;84.74
65291;SHT30;51893;59.754;10.110;2024-01-30T15:32:49;0.82;84.61
65291;SHT30;51893;59.754;10.110;2024-01-30T15:35:17;0.83;84.57
65291;SHT30;51893;59.754;10.110;2024-01-30T15:37:45;0.84;84.42
65291;SHT30;51893;59.754;10.110;2024-01-30T15:40:13;0.83;84.30